Gas Hills, Wyoming
Current Conditions -  °F | °C
As of 10:53 PM on Saturday 22 Nov 2014 (Local Time) from KRIW Reporting Station
Clear Clear  
Wind Chill: 20°   Ceiling: Unl
Heat Index: 31°   Visibility: 10mi
Dew Point: 15°   Wind: 15mph
Humidity: 52%   Direction: 330°NNW
Pressure: 29.66"   Gusts: 29mph
Location:  43.1005°N, 108.934°W
Report Text: KRIW 230553Z AUTO 33013G25KT 10SM CLR M01/M09 A2966 RMK AO2 PK WND 29030/0454 SLP056 T10061094 10039 21006 51017
Loading
Personal Weather Stations






























Interactive Weather Map New forecast layout! Learn more

10-Day Weather Forecast

Advertisements
Track Severe Weather on mobile